createdAt,value
2022-11-18T00:01:25.935Z,8.79
2022-11-18T00:06:27.137Z,8.74
2022-11-18T00:16:30.032Z,8.64
2022-11-18T00:21:32.011Z,8.64
2022-11-18T00:26:33.736Z,8.67
2022-11-18T00:31:35.927Z,8.7
2022-11-18T00:36:37.127Z,8.68
2022-11-18T00:41:39.244Z,8.7
2022-11-18T00:46:41.162Z,8.74
2022-11-18T00:51:43.248Z,8.74
2022-11-18T00:56:44.738Z,8.76
2022-11-18T01:01:46.582Z,8.79
2022-11-18T01:06:48.030Z,8.81
2022-11-18T01:11:49.769Z,8.79
2022-11-18T01:16:51.338Z,8.8
2022-11-18T01:21:53.357Z,8.79
2022-11-18T01:26:55.143Z,8.76
2022-11-18T01:32:22.532Z,8.72
2022-11-18T01:36:58.109Z,8.71
2022-11-18T01:42:00.260Z,8.68
2022-11-18T01:47:01.828Z,8.64
2022-11-18T01:52:03.056Z,8.68
2022-11-18T01:57:04.374Z,8.68
2022-11-18T02:02:05.862Z,8.6
2022-11-18T02:07:07.218Z,8.59
2022-11-18T02:12:08.424Z,8.59
2022-11-18T02:17:10.406Z,8.54
2022-11-18T02:22:12.067Z,8.5
2022-11-18T02:27:13.646Z,8.51
2022-11-18T02:32:15.263Z,8.51
2022-11-18T02:37:16.760Z,8.47
2022-11-18T02:42:18.358Z,8.47
2022-11-18T02:47:20.033Z,8.5
2022-11-18T02:52:22.022Z,8.47
2022-11-18T02:57:23.899Z,8.46
2022-11-18T03:02:25.857Z,8.47
2022-11-18T03:07:27.903Z,8.46
2022-11-18T03:12:29.519Z,8.39
2022-11-18T03:17:31.468Z,8.39
2022-11-18T03:22:33.023Z,8.41
2022-11-18T03:27:35.121Z,8.38
2022-11-18T03:32:36.735Z,8.35
2022-11-18T03:37:38.248Z,8.37
2022-11-18T03:42:40.040Z,8.37
2022-11-18T03:47:41.806Z,8.35
2022-11-18T03:52:43.463Z,8.37
2022-11-18T03:57:45.411Z,8.38
2022-11-18T04:02:46.676Z,8.33
2022-11-18T04:07:48.217Z,8.29
2022-11-18T04:12:50.028Z,8.28
2022-11-18T04:17:51.515Z,8.27
2022-11-18T04:22:52.786Z,8.13
2022-11-18T04:27:54.640Z,8.06
2022-11-18T04:32:56.535Z,8.05
2022-11-18T04:37:58.615Z,8.04
2022-11-18T04:42:59.991Z,8.03
2022-11-18T04:48:03.659Z,8.06
2022-11-18T04:53:03.278Z,8.1
2022-11-18T04:58:04.803Z,8.12
2022-11-18T05:03:06.847Z,8.16
2022-11-18T05:08:08.247Z,8.18
2022-11-18T05:13:10.341Z,8.21
2022-11-18T05:18:11.819Z,8.22
2022-11-18T05:18:18.104Z,8.22
2022-11-18T05:23:19.915Z,8.22
2022-11-18T05:28:21.548Z,8.22
2022-11-18T05:33:23.680Z,8.18
2022-11-18T05:38:25.700Z,8.2
2022-11-18T05:43:27.910Z,8.24
2022-11-18T05:48:30.052Z,8.22
2022-11-18T05:53:31.135Z,8.21
2022-11-18T05:58:32.829Z,8.22
2022-11-18T06:03:34.240Z,8.16
2022-11-18T06:08:35.681Z,8.16
2022-11-18T06:13:37.119Z,8.21
2022-11-18T06:18:39.287Z,8.22
2022-11-18T06:23:41.000Z,8.14
2022-11-18T06:28:42.275Z,8.14
2022-11-18T06:33:43.631Z,8.13
2022-11-18T06:38:45.170Z,8.1
2022-11-18T06:43:46.987Z,8.06
2022-11-18T06:48:49.120Z,8.07
2022-11-18T06:53:51.158Z,8.09
2022-11-18T06:58:52.563Z,8.03
2022-11-18T07:03:54.685Z,8.05
2022-11-18T07:08:56.206Z,8
2022-11-18T07:13:57.491Z,8.04
2022-11-18T07:18:59.448Z,8.07
2022-11-18T07:24:01.155Z,8.14
2022-11-18T07:29:02.670Z,8.22
2022-11-18T07:34:04.885Z,8.27
2022-11-18T07:39:06.321Z,8.34
2022-11-18T07:44:07.668Z,8.43
2022-11-18T07:49:09.114Z,8.47
2022-11-18T07:54:10.891Z,8.52
2022-11-18T07:59:13.041Z,8.58
2022-11-18T08:04:14.689Z,8.68
2022-11-18T08:09:16.705Z,8.7
2022-11-18T08:14:18.333Z,8.75
2022-11-18T08:19:19.985Z,8.8
2022-11-18T08:24:21.610Z,8.87
2022-11-18T08:29:25.183Z,8.89
2022-11-18T08:34:24.879Z,8.93
2022-11-18T08:39:26.981Z,9.01
2022-11-18T08:44:28.491Z,9.03
2022-11-18T08:49:32.470Z,9.06
2022-11-18T08:54:31.291Z,9.06
2022-11-18T08:59:32.940Z,9.05
2022-11-18T09:04:34.451Z,9.01
2022-11-18T09:09:35.764Z,9.01
2022-11-18T09:19:47.493Z,9.05
2022-11-18T09:24:39.805Z,9.1
2022-11-18T09:29:41.567Z,9.18
2022-11-18T09:34:43.519Z,9.45
2022-11-18T09:39:45.142Z,9.85
2022-11-18T09:44:46.637Z,10.36
2022-11-18T09:49:48.735Z,10.64
2022-11-18T09:54:50.793Z,10.79
2022-11-18T09:59:52.370Z,10.8
2022-11-18T10:04:53.750Z,10.87
2022-11-18T10:09:55.036Z,10.94
2022-11-18T10:14:56.397Z,10.89
2022-11-18T10:19:58.234Z,10.89
2022-11-18T10:25:00.125Z,10.85
2022-11-18T10:30:01.667Z,10.74
2022-11-18T10:35:02.885Z,10.69
2022-11-18T10:40:04.737Z,10.67
2022-11-18T10:45:06.842Z,10.66
2022-11-18T10:50:08.160Z,10.5
2022-11-18T10:55:10.079Z,10.43
2022-11-18T11:00:11.963Z,10.34
2022-11-18T11:05:13.935Z,10.24
2022-11-18T11:10:15.192Z,10.18
2022-11-18T11:15:16.379Z,10.21
2022-11-18T11:20:18.429Z,10.1
2022-11-18T11:25:19.791Z,10.02
2022-11-18T11:30:21.172Z,9.99
2022-11-18T11:35:22.801Z,9.96
2022-11-18T11:40:24.689Z,9.91
2022-11-18T11:45:26.342Z,9.79
2022-11-18T11:50:28.085Z,9.74
2022-11-18T11:55:29.164Z,9.72
2022-11-18T12:00:31.052Z,9.68
2022-11-18T12:05:33.221Z,9.66
2022-11-18T12:10:35.300Z,9.64
2022-11-18T12:15:36.813Z,9.64
2022-11-18T12:20:38.103Z,9.52
2022-11-18T12:25:39.817Z,9.37
2022-11-18T12:30:41.340Z,9.25
2022-11-18T12:35:43.591Z,9.14
2022-11-18T12:40:50.786Z,9.1
2022-11-18T12:45:47.343Z,8.91
2022-11-18T12:50:48.796Z,8.82
2022-11-18T12:55:49.996Z,8.68
2022-11-18T13:00:52.564Z,8.47
2022-11-18T13:05:53.269Z,8.35
2022-11-18T13:10:55.990Z,8.22
2022-11-18T13:15:56.035Z,8.21
2022-11-18T13:20:58.031Z,8.21
2022-11-18T13:46:06.787Z,8.21
2022-11-18T13:56:10.448Z,8.22
2022-11-18T14:01:12.142Z,8.27
2022-11-18T14:06:13.841Z,8.25
2022-11-18T14:16:17.362Z,8.3
2022-11-18T14:26:20.546Z,8.35
2022-11-18T14:31:22.265Z,8.39
2022-11-18T14:36:23.855Z,8.47
2022-11-18T14:41:25.019Z,8.46
2022-11-18T14:46:26.613Z,8.5
2022-11-18T14:51:28.264Z,8.53
2022-11-18T14:56:29.875Z,8.51
2022-11-18T15:01:31.403Z,8.51
2022-11-18T15:06:33.055Z,8.53
2022-11-18T15:11:34.716Z,8.54
2022-11-18T15:16:35.970Z,8.51
2022-11-18T15:21:38.190Z,8.51
2022-11-18T15:26:39.749Z,8.52
2022-11-18T15:31:41.541Z,8.53
2022-11-18T15:36:42.845Z,8.54
2022-11-18T15:41:44.763Z,8.56
2022-11-18T15:46:46.514Z,8.58
2022-11-18T15:51:48.411Z,8.56
2022-11-18T15:56:49.607Z,8.53
2022-11-18T16:01:54.214Z,8.51
2022-11-18T16:06:52.644Z,8.46
2022-11-18T16:11:54.385Z,8.43
2022-11-18T16:16:55.662Z,8.41
2022-11-18T16:21:57.782Z,8.39
2022-11-18T16:26:59.402Z,8.32
2022-11-18T16:32:00.825Z,8.28
2022-11-18T16:37:02.395Z,8.27
2022-11-18T16:42:08.616Z,8.22
2022-11-18T16:47:10.737Z,8.18
2022-11-18T16:52:07.608Z,8.18
2022-11-18T16:57:08.747Z,8.14
2022-11-18T17:02:10.149Z,8.1
2022-11-18T17:07:11.709Z,8.09
2022-11-18T17:12:13.744Z,8.1
2022-11-18T17:17:15.741Z,8.12
2022-11-18T17:22:17.882Z,8.12
2022-11-18T17:27:19.040Z,8.16
2022-11-18T17:32:20.764Z,8.16
2022-11-18T17:37:22.931Z,8.1
2022-11-18T17:42:24.149Z,8.07
2022-11-18T17:47:25.431Z,8.05
2022-11-18T17:52:26.878Z,7.95
2022-11-18T17:57:28.633Z,7.87
2022-11-18T18:02:30.200Z,7.85
2022-11-18T18:07:32.605Z,7.81
2022-11-18T18:12:33.868Z,7.71
2022-11-18T18:17:35.265Z,7.69
2022-11-18T18:22:37.262Z,7.67
2022-11-18T18:27:38.388Z,7.57
2022-11-18T18:32:40.500Z,7.52
2022-11-18T18:37:41.863Z,7.51
2022-11-18T18:42:43.337Z,7.5
2022-11-18T18:47:44.797Z,7.44
2022-11-18T18:52:46.730Z,7.42
2022-11-18T18:57:48.426Z,7.42
2022-11-18T19:02:50.233Z,7.39
2022-11-18T19:07:51.567Z,7.32
2022-11-18T19:12:53.096Z,7.32
2022-11-18T19:17:54.816Z,7.29
2022-11-18T19:22:55.976Z,7.21
2022-11-18T19:27:57.258Z,7.15
2022-11-18T19:32:58.897Z,7.14
2022-11-18T19:38:00.653Z,7.12
2022-11-18T19:43:02.202Z,7.05
2022-11-18T19:48:03.382Z,7.06
2022-11-18T19:53:05.091Z,7.06
2022-11-18T19:58:06.260Z,7.01
2022-11-18T20:03:08.003Z,6.97
2022-11-18T20:08:09.336Z,6.96
2022-11-18T20:13:11.016Z,6.93
2022-11-18T20:18:12.842Z,6.87
2022-11-18T20:23:14.913Z,6.84
2022-11-18T20:28:16.658Z,6.82
2022-11-18T20:33:17.950Z,6.78
2022-11-18T20:38:19.583Z,6.71
2022-11-18T20:43:20.988Z,6.73
2022-11-18T20:48:22.787Z,6.74
2022-11-18T20:53:24.122Z,6.72
2022-11-18T20:58:25.358Z,6.7
2022-11-18T21:03:27.376Z,6.7
2022-11-18T21:08:28.689Z,6.67
2022-11-18T21:13:30.710Z,6.61
2022-11-18T21:18:32.600Z,6.58
2022-11-18T21:23:34.225Z,6.53
2022-11-18T21:28:35.593Z,6.45
2022-11-18T21:33:37.235Z,6.4
2022-11-18T21:38:39.282Z,6.37
2022-11-18T21:44:04.237Z,6.32
2022-11-18T21:48:42.922Z,6.2
2022-11-18T21:53:44.860Z,6.16
2022-11-18T21:58:46.303Z,6.14
2022-11-18T22:03:52.260Z,6.08
2022-11-18T22:08:50.260Z,6.04
2022-11-18T22:13:58.369Z,6.04
2022-11-18T22:19:03.797Z,6.04
2022-11-18T22:24:01.524Z,6.03
2022-11-18T22:29:03.312Z,6.06
2022-11-18T22:34:04.662Z,6.1
2022-11-18T22:39:06.520Z,6.12
2022-11-18T22:44:08.515Z,6.1
2022-11-18T22:49:09.919Z,6.13
2022-11-18T22:59:13.630Z,6.09
2022-11-18T23:14:18.675Z,5.97
2022-11-18T23:19:20.903Z,5.91
2022-11-18T23:24:22.529Z,5.92
2022-11-18T23:29:23.794Z,5.96
2022-11-18T23:34:25.505Z,5.96
2022-11-18T23:39:27.388Z,5.97
2022-11-18T23:44:29.518Z,6.02
2022-11-18T23:49:31.505Z,6.06
2022-11-18T23:54:33.340Z,6.08
2022-11-18T23:59:35.530Z,6.14
